Terminal Aerodrome Forecast
Issued by NWS Billings, MT

Home | Current Version | Previous Version | Text Only | Print | Product List | Glossary On
Versions: 1 2 3 4 5 6 7 8 9 10 11 12 13 14 15 16
000
FTUS45 KBYZ 142331
TAFBIL
TAF
KBIL 142331Z 1500/1524 VRB06KT P6SM FEW060 SCT200
     FM150200 24015G24KT P6SM FEW100 BKN200
     FM151100 24020G33KT P6SM FEW100 BKN200=

USA.gov is the U.S. government's official web portal to all federal, state and local government web resources and services.